Time;durP1;ratioP1;P1;durP2;ratioP2;P2;SDS_P1;SDS_P2;PMS_P1;PMS_P2;Temp;Humidity;BMP_temperature;BMP_pressure;BME280_temperature;BME280_humidity;BME280_pressure;Samples;Min_cycle;Max_cycle;Signal;HPM_P1;HPM_P2
2024/04/22 00:02:23;;;;;;;2.15;1.00;;;5.30;99.90;;;;;;5435696;26;20016;-80
2024/04/22 00:04:50;;;;;;;2.78;1.10;;;5.30;99.90;;;;;;5419741;26;22209;-80
2024/04/22 00:07:16;;;;;;;3.00;1.13;;;5.20;99.90;;;;;;5386876;26;19998;-79
2024/04/22 00:09:46;;;;;;;2.80;1.50;;;5.20;99.90;;;;;;5414341;26;20017;-80
2024/04/22 00:12:12;;;;;;;3.47;1.45;;;5.10;99.90;;;;;;5413398;26;20017;-80
2024/04/22 00:14:39;;;;;;;2.22;1.02;;;5.00;99.90;;;;;;5377749;26;20552;-80
2024/04/22 00:17:05;;;;;;;1.92;0.90;;;5.00;99.90;;;;;;5428739;26;20007;-80
2024/04/22 00:19:32;;;;;;;2.78;1.65;;;5.00;99.90;;;;;;5415605;26;20025;-79
2024/04/22 00:21:58;;;;;;;1.85;1.02;;;4.90;99.90;;;;;;5414798;26;20009;-79
2024/04/22 00:24:25;;;;;;;2.50;1.13;;;4.90;99.90;;;;;;5384967;26;20016;-80
2024/04/22 00:26:52;;;;;;;4.50;1.00;;;4.90;99.90;;;;;;5415081;26;20091;-79
2024/04/22 00:29:18;;;;;;;2.83;1.50;;;4.80;99.90;;;;;;5373582;26;20017;-79
2024/04/22 00:31:44;;;;;;;3.00;1.55;;;4.80;99.90;;;;;;5439393;26;20009;-80
2024/04/22 00:34:10;;;;;;;2.17;1.30;;;4.80;99.90;;;;;;5422682;26;20006;-80
2024/04/22 00:36:37;;;;;;;2.17;1.02;;;4.80;99.90;;;;;;5421624;26;20009;-81
2024/04/22 00:39:03;;;;;;;2.35;1.83;;;4.80;99.90;;;;;;5417549;26;20010;-80
2024/04/22 00:41:31;;;;;;;2.78;1.30;;;4.80;99.90;;;;;;5388053;26;20120;-80
2024/04/22 00:43:57;;;;;;;2.45;0.93;;;4.70;99.90;;;;;;5433452;26;20759;-81
2024/04/22 00:46:24;;;;;;;2.47;0.98;;;4.70;99.90;;;;;;5408125;26;21023;-80
2024/04/22 00:48:51;;;;;;;3.57;1.27;;;4.70;99.90;;;;;;5417806;26;20006;-79
2024/04/22 00:51:17;;;;;;;3.05;1.50;;;4.70;99.90;;;;;;5377803;26;20013;-80
2024/04/22 00:53:44;;;;;;;3.40;1.38;;;4.70;99.90;;;;;;5400897;26;20010;-80
2024/04/22 00:56:11;;;;;;;1.92;1.00;;;4.70;99.90;;;;;;5397428;26;22039;-80
2024/04/22 00:58:38;;;;;;;3.33;1.60;;;4.70;99.90;;;;;;5403693;26;20014;-80
2024/04/22 01:01:05;;;;;;;2.00;1.23;;;4.70;99.90;;;;;;5389901;26;20002;-81
2024/04/22 01:03:34;;;;;;;4.28;1.77;;;4.70;99.90;;;;;;5381237;26;22656;-80
2024/04/22 01:06:01;;;;;;;3.08;1.10;;;4.70;99.90;;;;;;5368510;26;20017;-80
2024/04/22 01:08:27;;;;;;;2.72;1.27;;;4.70;99.90;;;;;;5346853;26;20002;-79
2024/04/22 01:10:54;;;;;;;1.80;1.05;;;4.60;99.90;;;;;;5427864;25;20024;-80
2024/04/22 01:13:20;;;;;;;3.33;1.00;;;4.60;99.90;;;;;;5407321;26;21077;-81
2024/04/22 01:15:47;;;;;;;3.50;1.50;;;4.60;99.90;;;;;;5398663;26;20010;-80
2024/04/22 01:18:17;;;;;;;3.97;1.38;;;4.60;99.90;;;;;;5401299;26;20006;-80
2024/04/22 01:20:45;;;;;;;1.90;1.00;;;4.60;99.90;;;;;;5418993;26;20025;-81
2024/04/22 01:23:13;;;;;;;1.95;1.02;;;4.70;99.90;;;;;;5417557;26;20517;-81
2024/04/22 01:25:46;;;;;;;2.03;1.02;;;4.70;99.90;;;;;;5387059;26;21887;-80
2024/04/22 01:28:12;;;;;;;2.35;1.20;;;4.60;99.90;;;;;;5363793;26;20005;-81
2024/04/22 01:30:38;;;;;;;3.38;1.05;;;4.60;99.90;;;;;;5408886;26;20310;-80
2024/04/22 01:33:05;;;;;;;3.05;1.05;;;4.60;99.90;;;;;;5425936;26;20017;-80
2024/04/22 01:35:31;;;;;;;2.00;1.10;;;4.60;99.90;;;;;;5420930;26;20007;-80
2024/04/22 01:37:57;;;;;;;3.10;0.82;;;4.60;99.90;;;;;;5418254;26;20006;-80
2024/04/22 01:40:24;;;;;;;2.20;1.35;;;4.50;99.90;;;;;;5355849;26;20005;-80
2024/04/22 01:42:50;;;;;;;2.47;1.08;;;4.50;99.90;;;;;;5361403;26;20020;-80
2024/04/22 01:45:16;;;;;;;3.85;1.30;;;4.40;99.90;;;;;;5445696;26;20355;-79
2024/04/22 01:47:43;;;;;;;4.25;1.52;;;4.40;99.90;;;;;;5416467;26;20002;-80
2024/04/22 01:50:10;;;;;;;1.83;1.10;;;4.40;99.90;;;;;;5400544;26;20021;-80
2024/04/22 01:52:36;;;;;;;3.20;1.97;;;4.30;99.90;;;;;;5423765;26;22165;-80
2024/04/22 01:55:03;;;;;;;2.63;1.48;;;4.30;99.90;;;;;;5392326;26;20014;-79
2024/04/22 01:57:29;;;;;;;2.15;1.30;;;4.20;99.90;;;;;;5393136;26;20021;-79
2024/04/22 01:59:55;;;;;;;4.00;1.70;;;4.20;99.90;;;;;;5434634;26;20025;-79
2024/04/22 02:02:22;;;;;;;1.70;1.10;;;4.20;99.90;;;;;;5442627;26;20021;-81
2024/04/22 02:04:48;;;;;;;4.00;1.20;;;4.10;99.90;;;;;;5387379;26;20682;-79
2024/04/22 02:07:14;;;;;;;1.50;0.80;;;4.10;99.90;;;;;;5392782;26;20002;-80
2024/04/22 02:09:41;;;;;;;2.87;1.10;;;4.10;99.90;;;;;;5444755;25;19998;-80
2024/04/22 02:12:07;;;;;;;3.60;1.42;;;4.00;99.90;;;;;;5417287;26;21864;-80
2024/04/22 02:14:35;;;;;;;2.13;1.20;;;4.00;99.90;;;;;;5433158;26;19998;-79
2024/04/22 02:17:02;;;;;;;3.30;1.30;;;3.90;99.90;;;;;;5435240;26;20017;-80
2024/04/22 02:19:28;;;;;;;2.10;1.17;;;3.80;99.90;;;;;;5418960;26;20850;-80
2024/04/22 02:21:55;;;;;;;2.15;1.33;;;3.80;99.90;;;;;;5389209;26;20088;-80
2024/04/22 02:24:21;;;;;;;2.37;1.50;;;3.80;99.90;;;;;;5415029;26;20006;-80
2024/04/22 02:26:48;;;;;;;1.80;0.90;;;3.70;99.90;;;;;;5389933;26;20020;-81
2024/04/22 02:29:15;;;;;;;3.08;1.52;;;3.70;99.90;;;;;;5435617;26;20477;-80
2024/04/22 02:31:42;;;;;;;2.28;1.25;;;3.70;99.90;;;;;;5430404;26;20017;-80
2024/04/22 02:34:08;;;;;;;2.95;1.20;;;3.60;99.90;;;;;;5388799;26;19998;-79
2024/04/22 02:36:35;;;;;;;2.28;1.60;;;3.60;99.90;;;;;;5386406;26;20372;-80
2024/04/22 02:39:01;;;;;;;2.70;1.10;;;3.60;99.90;;;;;;5360733;26;20014;-80
2024/04/22 02:41:27;;;;;;;3.58;1.50;;;3.60;99.90;;;;;;5425168;26;20028;-81
2024/04/22 02:43:54;;;;;;;5.57;1.65;;;3.50;99.90;;;;;;5437920;26;20001;-80
2024/04/22 02:46:20;;;;;;;2.33;1.23;;;3.50;99.90;;;;;;5432673;26;21229;-80
2024/04/22 02:48:46;;;;;;;2.77;1.47;;;3.50;99.90;;;;;;5383724;26;20377;-81
2024/04/22 02:51:13;;;;;;;4.73;1.80;;;3.50;99.90;;;;;;5386202;26;19998;-80
2024/04/22 02:53:39;;;;;;;3.22;2.00;;;3.40;99.90;;;;;;5387328;26;21092;-79
2024/04/22 02:56:05;;;;;;;3.67;1.83;;;3.40;99.90;;;;;;5385866;26;20118;-81
2024/04/22 02:58:33;;;;;;;4.75;1.90;;;3.40;99.90;;;;;;5405545;26;20366;-79
2024/04/22 03:00:59;;;;;;;3.37;2.07;;;3.40;99.90;;;;;;5401630;26;20364;-80
2024/04/22 03:03:25;;;;;;;3.50;2.10;;;3.30;99.90;;;;;;5418318;26;20021;-80
2024/04/22 03:05:55;;;;;;;2.13;1.27;;;3.30;99.90;;;;;;5416953;26;20006;-80
2024/04/22 03:08:22;;;;;;;3.10;1.83;;;3.30;99.90;;;;;;5417410;26;20009;-79
2024/04/22 03:10:48;;;;;;;3.60;2.17;;;3.30;99.90;;;;;;5421605;26;20020;-80
2024/04/22 03:13:14;;;;;;;2.90;1.70;;;3.30;99.90;;;;;;5402709;26;19998;-79
2024/04/22 03:15:41;;;;;;;3.60;1.80;;;3.20;99.90;;;;;;5397653;26;20016;-80
2024/04/22 03:18:07;;;;;;;2.03;1.20;;;3.20;99.90;;;;;;5414494;26;21299;-81
2024/04/22 03:20:37;;;;;;;3.20;1.67;;;3.20;99.90;;;;;;5415978;26;20441;-80
2024/04/22 03:23:03;;;;;;;4.57;2.20;;;3.20;99.90;;;;;;5385676;26;22496;-80
2024/04/22 03:25:29;;;;;;;5.37;2.10;;;3.10;99.90;;;;;;5384634;26;20009;-80
2024/04/22 03:27:56;;;;;;;2.47;1.53;;;3.10;99.90;;;;;;5428829;26;20021;-80
2024/04/22 03:30:22;;;;;;;3.57;1.90;;;3.10;99.90;;;;;;5399083;26;19998;-80
2024/04/22 03:32:48;;;;;;;3.60;1.70;;;3.00;99.90;;;;;;5421237;26;22213;-80
2024/04/22 03:35:15;;;;;;;3.67;2.30;;;3.00;99.90;;;;;;5384026;26;20011;-80
2024/04/22 03:37:42;;;;;;;4.00;2.00;;;3.00;99.90;;;;;;5383136;26;20006;-80
2024/04/22 03:40:09;;;;;;;3.45;2.28;;;2.90;99.90;;;;;;5384455;26;21119;-80
2024/04/22 03:42:37;;;;;;;3.93;1.60;;;2.90;99.90;;;;;;5430680;26;20021;-80
2024/04/22 03:45:04;;;;;;;3.40;1.80;;;2.90;99.90;;;;;;5401474;26;20006;-80
2024/04/22 03:50:16;;;;;;;6.10;1.77;;;2.90;99.90;;;;;;5392034;26;20002;-81
2024/04/22 03:52:42;;;;;;;4.43;1.73;;;2.80;99.90;;;;;;5416903;26;20002;-80
2024/04/22 03:55:08;;;;;;;1.60;0.87;;;2.80;99.90;;;;;;5417042;26;20006;-81
2024/04/22 03:57:35;;;;;;;3.37;0.90;;;2.80;99.90;;;;;;5429888;26;20006;-80
2024/04/22 04:00:01;;;;;;;2.20;1.03;;;2.80;99.90;;;;;;5431609;26;20495;-79
2024/04/22 04:02:38;;;;;;;2.90;1.40;;;2.70;99.90;;;;;;5414539;26;20021;-79
2024/04/22 04:05:04;;;;;;;2.80;1.37;;;2.70;99.90;;;;;;5415423;26;20486;-80
2024/04/22 04:07:30;;;;;;;3.37;1.80;;;2.70;99.90;;;;;;5360002;26;20357;-80
2024/04/22 04:09:57;;;;;;;3.90;1.60;;;2.70;99.90;;;;;;5418291;26;20017;-79
2024/04/22 04:12:23;;;;;;;1.90;1.07;;;2.70;99.90;;;;;;5375010;26;20010;-79
2024/04/22 04:14:49;;;;;;;2.13;1.00;;;2.70;99.90;;;;;;5436841;26;20013;-79
2024/04/22 04:17:16;;;;;;;2.53;1.30;;;2.70;99.90;;;;;;5362169;26;20021;-79
2024/04/22 04:19:42;;;;;;;2.77;1.77;;;2.70;99.90;;;;;;5414871;26;20010;-79
2024/04/22 04:22:09;;;;;;;3.23;1.70;;;2.70;99.90;;;;;;5446216;25;20006;-79
2024/04/22 04:24:35;;;;;;;2.67;1.10;;;2.70;99.90;;;;;;5364309;26;20021;-80
2024/04/22 04:27:01;;;;;;;1.87;0.80;;;2.70;99.90;;;;;;5432973;26;19998;-80
2024/04/22 04:29:28;;;;;;;2.90;1.20;;;2.70;99.90;;;;;;5431423;26;20009;-79
2024/04/22 04:31:54;;;;;;;4.63;1.60;;;2.70;99.90;;;;;;5421398;26;20002;-79
2024/04/22 04:34:20;;;;;;;3.40;1.40;;;2.70;99.90;;;;;;5361168;26;20650;-79
2024/04/22 04:36:46;;;;;;;3.07;1.40;;;2.70;99.90;;;;;;5417607;26;20002;-80
2024/04/22 04:39:13;;;;;;;4.03;1.60;;;2.70;99.90;;;;;;5394346;26;20006;-80
2024/04/22 04:41:39;;;;;;;2.70;1.20;;;2.80;99.90;;;;;;5404925;26;20010;-79
2024/04/22 04:44:06;;;;;;;2.57;1.37;;;2.80;99.90;;;;;;5423961;26;20003;-79
2024/04/22 04:46:33;;;;;;;4.77;2.10;;;2.80;99.90;;;;;;5416212;26;19994;-79
2024/04/22 04:48:59;;;;;;;5.17;1.90;;;2.80;99.90;;;;;;5414647;26;21259;-79
2024/04/22 04:51:25;;;;;;;4.77;1.37;;;2.80;99.90;;;;;;5360424;26;21491;-79
2024/04/22 04:53:52;;;;;;;4.00;1.70;;;2.90;99.90;;;;;;5456189;25;20006;-80
2024/04/22 04:56:18;;;;;;;3.10;1.60;;;2.90;99.90;;;;;;5402729;26;20028;-80
2024/04/22 04:58:45;;;;;;;3.43;1.30;;;2.90;99.90;;;;;;5385506;26;20009;-80
2024/04/22 05:01:11;;;;;;;4.23;1.40;;;3.00;99.90;;;;;;5415151;26;20016;-80
2024/04/22 05:03:37;;;;;;;1.70;0.80;;;3.00;99.90;;;;;;5415641;26;20010;-80
2024/04/22 05:06:04;;;;;;;2.73;1.07;;;3.10;99.90;;;;;;5427401;26;20017;-79
2024/04/22 05:08:30;;;;;;;2.60;1.33;;;3.10;99.90;;;;;;5401646;26;20002;-80
2024/04/22 05:11:01;;;;;;;3.22;1.17;;;3.10;99.90;;;;;;5386823;26;20003;-80
2024/04/22 05:13:27;;;;;;;1.80;1.00;;;3.20;99.90;;;;;;5411906;26;20002;-79
2024/04/22 05:15:54;;;;;;;2.90;1.23;;;3.20;99.90;;;;;;5416973;26;20073;-80
2024/04/22 05:18:20;;;;;;;3.20;1.33;;;3.20;99.90;;;;;;5472946;25;19998;-80
2024/04/22 05:20:46;;;;;;;2.57;1.00;;;3.30;99.90;;;;;;5404221;26;19998;-80
2024/04/22 05:23:13;;;;;;;6.37;1.63;;;3.40;99.90;;;;;;5417744;26;20452;-81
2024/04/22 05:25:40;;;;;;;3.50;1.50;;;3.40;99.90;;;;;;5414334;26;20453;-79
2024/04/22 05:28:07;;;;;;;2.95;1.48;;;3.50;99.90;;;;;;5449153;26;20002;-79
2024/04/22 05:30:34;;;;;;;2.30;1.20;;;3.60;99.90;;;;;;5384952;26;20010;-80
2024/04/22 05:36:09;;;;;;;2.87;1.40;;;3.60;99.90;;;;;;5403214;26;20010;-79
2024/04/22 05:38:32;;;;;;;2.23;1.10;;;3.80;99.90;;;;;;5431583;26;20006;-79
2024/04/22 05:40:58;;;;;;;2.03;0.97;;;3.90;99.90;;;;;;5414786;26;20013;-78
2024/04/22 05:43:24;;;;;;;1.65;1.08;;;4.00;99.90;;;;;;5422767;26;20013;-78
2024/04/22 05:45:53;;;;;;;3.33;1.20;;;4.00;99.90;;;;;;5437577;26;20013;-78
2024/04/22 05:48:19;;;;;;;2.23;1.20;;;4.10;99.90;;;;;;5428973;26;19998;-79
2024/04/22 05:50:45;;;;;;;3.20;1.30;;;4.20;99.90;;;;;;5393186;26;20016;-79
2024/04/22 05:53:12;;;;;;;2.17;1.23;;;4.20;99.90;;;;;;5441727;26;20005;-78
2024/04/22 05:55:39;;;;;;;4.03;1.10;;;4.30;99.90;;;;;;5389315;26;20006;-79
2024/04/22 05:58:05;;;;;;;3.93;1.20;;;4.30;99.90;;;;;;5386830;26;20006;-79
2024/04/22 06:00:32;;;;;;;2.10;1.40;;;4.40;99.90;;;;;;5430974;26;20489;-79
2024/04/22 06:02:58;;;;;;;2.78;1.23;;;4.40;99.90;;;;;;5401900;26;20006;-79
2024/04/22 06:05:25;;;;;;;3.60;1.20;;;4.50;99.90;;;;;;5387501;26;20021;-78
2024/04/22 06:07:51;;;;;;;2.65;1.60;;;4.60;99.90;;;;;;5392801;26;19999;-79
2024/04/22 06:10:17;;;;;;;1.80;1.00;;;4.60;99.90;;;;;;5359167;26;21104;-79
2024/04/22 06:12:44;;;;;;;2.90;1.30;;;4.70;99.90;;;;;;5367139;26;20654;-78
2024/04/22 06:15:10;;;;;;;2.17;1.17;;;4.80;99.90;;;;;;5402698;26;22444;-78
2024/04/22 06:17:36;;;;;;;2.83;1.20;;;4.90;99.90;;;;;;5430196;26;20020;-78
2024/04/22 06:20:04;;;;;;;4.80;1.55;;;5.00;99.90;;;;;;5421002;26;20002;-79
2024/04/22 06:22:34;;;;;;;3.17;1.50;;;5.10;99.90;;;;;;5422352;26;20006;-78
2024/04/22 06:25:02;;;;;;;5.70;1.63;;;5.30;99.90;;;;;;5422365;26;20462;-79
2024/04/22 06:27:28;;;;;;;2.42;1.40;;;5.40;99.90;;;;;;5435645;26;20002;-78
2024/04/22 06:29:55;;;;;;;3.00;1.23;;;5.50;99.90;;;;;;5392801;26;20332;-78
2024/04/22 06:32:21;;;;;;;2.08;0.90;;;5.70;99.90;;;;;;5393883;26;20356;-79
2024/04/22 06:34:48;;;;;;;3.75;0.95;;;5.80;99.90;;;;;;5426072;26;20356;-79
2024/04/22 06:37:14;;;;;;;2.75;0.93;;;6.00;99.90;;;;;;5445848;26;20057;-79
2024/04/22 06:39:40;;;;;;;2.30;1.10;;;6.20;99.90;;;;;;5433064;26;20996;-78
2024/04/22 06:42:07;;;;;;;1.55;0.70;;;6.30;99.90;;;;;;5435191;26;20014;-78
2024/04/22 06:44:33;;;;;;;2.90;1.05;;;6.50;99.90;;;;;;5399294;26;20010;-78
2024/04/22 06:46:59;;;;;;;3.05;1.33;;;6.60;99.90;;;;;;5391960;26;20012;-78
2024/04/22 06:49:26;;;;;;;2.15;0.93;;;6.70;99.90;;;;;;5416967;26;20357;-80
2024/04/22 06:51:52;;;;;;;2.33;1.52;;;6.80;99.90;;;;;;5430114;26;20056;-80
2024/04/22 06:54:18;;;;;;;3.85;1.40;;;6.90;99.90;;;;;;5441233;26;20016;-79
2024/04/22 06:56:45;;;;;;;2.40;1.50;;;7.00;99.90;;;;;;5428753;26;19994;-79
2024/04/22 06:59:11;;;;;;;3.78;1.20;;;7.20;99.90;;;;;;5392156;26;20004;-80
2024/04/22 07:01:37;;;;;;;2.45;0.93;;;7.40;99.90;;;;;;5417307;26;20002;-79
2024/04/22 07:04:04;;;;;;;2.35;0.80;;;7.50;99.90;;;;;;5398081;26;20002;-79
2024/04/22 07:06:33;;;;;;;3.30;1.38;;;7.60;99.90;;;;;;5436383;26;20002;-79
2024/04/22 07:09:01;;;;;;;2.90;1.30;;;7.70;99.90;;;;;;5436031;26;20006;-80
2024/04/22 07:11:27;;;;;;;2.55;1.05;;;7.90;99.90;;;;;;5422943;26;20043;-79
2024/04/22 07:13:54;;;;;;;1.58;0.80;;;8.00;99.90;;;;;;5423078;26;20012;-79
2024/04/22 07:16:20;;;;;;;1.45;0.90;;;8.10;99.90;;;;;;5391542;26;20024;-79
2024/04/22 07:18:47;;;;;;;2.22;1.20;;;8.30;99.90;;;;;;5366068;26;20010;-79
2024/04/22 07:21:13;;;;;;;1.80;1.02;;;8.40;99.90;;;;;;5378554;26;20052;-80
2024/04/22 07:23:39;;;;;;;2.03;0.90;;;8.50;99.90;;;;;;5426516;26;20012;-80
2024/04/22 07:26:06;;;;;;;2.47;0.90;;;8.60;99.90;;;;;;5363426;26;20009;-80
2024/04/22 07:28:32;;;;;;;1.60;0.95;;;8.70;99.90;;;;;;5421051;26;20009;-80
2024/04/22 07:30:59;;;;;;;4.28;1.10;;;8.80;99.90;;;;;;5388921;26;21056;-80
2024/04/22 07:33:26;;;;;;;3.25;1.10;;;8.90;99.90;;;;;;5402289;26;20006;-80
2024/04/22 07:35:55;;;;;;;1.95;0.75;;;9.00;99.90;;;;;;5376526;26;20016;-80
2024/04/22 07:38:30;;;;;;;2.05;0.73;;;9.20;99.90;;;;;;5362923;26;20009;-80
2024/04/22 07:40:57;;;;;;;5.32;1.25;;;9.30;99.90;;;;;;5477385;25;20029;-80
2024/04/22 07:43:23;;;;;;;3.03;1.30;;;9.40;99.90;;;;;;5429313;26;20012;-81
2024/04/22 07:45:50;;;;;;;3.70;1.67;;;9.50;99.90;;;;;;5376335;26;20010;-80
2024/04/22 07:48:16;;;;;;;2.75;1.00;;;9.70;99.90;;;;;;5439546;26;20460;-81
2024/04/22 07:50:42;;;;;;;2.92;0.80;;;9.80;99.90;;;;;;5396808;26;20155;-80
2024/04/22 07:53:09;;;;;;;2.35;0.80;;;10.00;99.90;;;;;;5426964;26;20076;-81
2024/04/22 07:55:37;;;;;;;2.40;0.77;;;10.10;99.90;;;;;;5398776;26;20023;-80
2024/04/22 07:58:04;;;;;;;3.28;0.60;;;10.20;99.90;;;;;;5461473;26;20006;-80
2024/04/22 08:00:30;;;;;;;1.73;0.57;;;10.30;99.90;;;;;;5411266;26;19998;-80
2024/04/22 08:02:57;;;;;;;3.85;0.75;;;10.50;99.90;;;;;;5374038;26;20032;-80
2024/04/22 08:05:23;;;;;;;3.15;0.70;;;10.50;99.90;;;;;;5428933;26;20009;-80
2024/04/22 08:07:56;;;;;;;3.15;0.60;;;10.60;99.90;;;;;;5394647;26;20017;-81
2024/04/22 08:10:22;;;;;;;1.10;0.50;;;10.60;99.90;;;;;;5428106;26;20002;-80
2024/04/22 08:12:49;;;;;;;3.17;0.60;;;10.60;99.90;;;;;;5443830;26;20570;-81
2024/04/22 08:15:16;;;;;;;3.63;0.50;;;10.60;99.90;;;;;;5409182;26;20016;-81
2024/04/22 08:17:42;;;;;;;3.03;0.70;;;10.70;99.90;;;;;;5397823;26;19998;-80
2024/04/22 08:20:09;;;;;;;2.45;0.82;;;10.70;99.90;;;;;;5448148;25;20026;-81
2024/04/22 08:22:35;;;;;;;3.83;0.70;;;10.80;99.90;;;;;;5393115;26;20010;-80
2024/04/22 08:25:02;;;;;;;4.40;0.60;;;10.80;99.90;;;;;;5405477;26;20010;-80
2024/04/22 08:27:29;;;;;;;2.92;0.60;;;10.80;99.90;;;;;;5407442;26;20009;-80
2024/04/22 08:29:58;;;;;;;4.30;0.98;;;10.70;99.90;;;;;;5453087;25;21549;-80
2024/04/22 08:32:25;;;;;;;1.83;0.60;;;10.80;99.90;;;;;;5398146;26;20002;-79
2024/04/22 08:34:52;;;;;;;1.85;0.55;;;10.80;99.90;;;;;;5397135;26;20021;-80
2024/04/22 08:37:18;;;;;;;1.85;0.30;;;10.70;99.90;;;;;;5458968;25;20006;-80
2024/04/22 08:39:44;;;;;;;1.90;0.40;;;10.60;99.90;;;;;;5410305;26;20016;-80
2024/04/22 08:42:15;;;;;;;2.20;0.50;;;10.70;99.90;;;;;;5428951;26;20536;-78
2024/04/22 08:44:41;;;;;;;3.25;0.50;;;10.70;99.90;;;;;;5399224;26;20003;-79
2024/04/22 08:47:07;;;;;;;3.88;0.40;;;10.70;99.90;;;;;;5428105;26;20051;-78
2024/04/22 08:49:34;;;;;;;1.10;0.30;;;10.70;99.90;;;;;;5426523;26;20010;-79
2024/04/22 08:52:02;;;;;;;2.17;0.45;;;10.70;99.90;;;;;;5406404;26;20009;-80
2024/04/22 08:54:30;;;;;;;6.20;0.55;;;10.80;99.90;;;;;;5393309;26;20009;-80
2024/04/22 08:56:57;;;;;;;5.30;0.90;;;10.80;99.90;;;;;;5390214;26;20040;-81
2024/04/22 08:59:23;;;;;;;2.28;0.63;;;10.90;99.90;;;;;;5419034;26;20002;-83
2024/04/22 09:02:03;;;;;;;2.60;0.50;;;10.90;99.90;;;;;;5423661;26;20007;-78
2024/04/22 09:04:30;;;;;;;2.50;0.40;;;11.00;99.90;;;;;;5440182;26;20008;-80
2024/04/22 09:06:56;;;;;;;1.77;0.40;;;11.20;99.90;;;;;;5425037;26;19998;-80
2024/04/22 09:09:22;;;;;;;2.15;0.45;;;11.40;99.90;;;;;;5391389;26;20002;-80
2024/04/22 09:11:52;;;;;;;4.32;0.60;;;11.60;99.90;;;;;;5419904;26;20010;-78
2024/04/22 09:14:20;;;;;;;3.08;0.50;;;11.70;99.90;;;;;;5393465;26;20007;-79
2024/04/22 09:16:46;;;;;;;1.27;0.45;;;11.80;99.90;;;;;;5436934;26;19998;-78
2024/04/22 09:19:23;;;;;;;2.60;0.60;;;11.80;99.90;;;;;;5395420;26;20006;-80
2024/04/22 09:21:50;;;;;;;1.70;0.50;;;12.00;99.90;;;;;;5420876;26;20006;-82
2024/04/22 09:24:17;;;;;;;5.95;1.10;;;12.20;99.90;;;;;;5391371;26;20342;-81
2024/04/22 09:26:43;;;;;;;4.40;0.70;;;12.20;99.90;;;;;;5391800;26;20009;-82
2024/04/22 09:29:11;;;;;;;3.00;0.70;;;12.30;99.90;;;;;;5434967;26;19998;-80
2024/04/22 09:31:41;;;;;;;2.17;0.75;;;12.30;99.90;;;;;;5404363;26;21623;-81
2024/04/22 09:34:11;;;;;;;14.40;7.15;;;12.40;99.90;;;;;;5365420;26;21050;-81
2024/04/22 09:36:40;;;;;;;9.07;5.50;;;12.40;99.90;;;;;;5363153;26;20020;-81
2024/04/22 09:39:07;;;;;;;12.23;5.88;;;12.30;99.90;;;;;;5422759;26;19998;-81
2024/04/22 09:41:35;;;;;;;4.10;0.93;;;12.00;99.90;;;;;;5409619;26;20016;-81
2024/04/22 09:44:03;;;;;;;5.35;0.70;;;11.70;99.90;;;;;;5438582;26;20020;-82
2024/04/22 09:46:32;;;;;;;4.00;0.52;;;11.30;99.90;;;;;;5418859;26;22655;-81
2024/04/22 09:49:00;;;;;;;5.72;0.70;;;11.10;99.90;;;;;;5389418;26;20013;-81
2024/04/22 09:51:28;;;;;;;2.60;0.68;;;10.90;99.90;;;;;;5422455;26;20443;-79
2024/04/22 09:53:56;;;;;;;3.42;0.70;;;10.90;99.90;;;;;;5402955;26;20002;-80
2024/04/22 09:56:27;;;;;;;2.80;0.60;;;10.90;99.90;;;;;;5437383;26;20626;-79
2024/04/22 09:58:54;;;;;;;2.97;0.50;;;10.90;99.90;;;;;;5417262;26;20006;-80
2024/04/22 10:01:21;;;;;;;3.45;0.80;;;11.10;99.90;;;;;;5388525;26;20613;-81
2024/04/22 10:03:48;;;;;;;1.55;0.55;;;11.20;99.90;;;;;;5391419;26;20017;-81
2024/04/22 10:06:16;;;;;;;2.50;0.57;;;11.50;99.90;;;;;;5419773;26;20020;-79
2024/04/22 10:08:43;;;;;;;3.03;0.60;;;11.70;99.90;;;;;;5435182;26;19998;-79
2024/04/22 10:11:11;;;;;;;3.28;0.65;;;11.80;99.90;;;;;;5433981;26;21875;-79
2024/04/22 10:13:37;;;;;;;3.35;1.08;;;11.90;99.90;;;;;;5422505;26;20013;-79
2024/04/22 10:16:04;;;;;;;5.78;1.02;;;12.10;99.90;;;;;;5419002;26;20560;-79
2024/04/22 10:18:31;;;;;;;5.20;0.98;;;12.40;99.90;;;;;;5449083;25;20025;-80
2024/04/22 10:21:02;;;;;;;4.50;1.13;;;12.80;99.90;;;;;;5418675;26;20013;-80
2024/04/22 10:23:29;;;;;;;3.10;0.57;;;13.20;99.90;;;;;;5408506;26;20016;-80
2024/04/22 10:25:55;;;;;;;1.55;0.65;;;13.50;99.90;;;;;;5391914;26;20356;-80
2024/04/22 10:28:22;;;;;;;3.53;0.90;;;13.60;99.90;;;;;;5422978;26;20006;-80
2024/04/22 10:30:48;;;;;;;2.88;0.65;;;13.90;99.90;;;;;;5387927;26;19995;-81
2024/04/22 10:33:14;;;;;;;3.35;0.93;;;13.80;99.90;;;;;;5421024;26;20341;-79
2024/04/22 10:35:40;;;;;;;2.47;0.60;;;13.50;99.90;;;;;;5434797;26;20020;-79
2024/04/22 10:38:07;;;;;;;2.70;0.90;;;13.30;99.60;;;;;;5448757;25;20010;-80
2024/04/22 10:40:33;;;;;;;1.30;0.50;;;13.40;99.00;;;;;;5422351;26;20056;-80
2024/04/22 10:43:00;;;;;;;2.78;0.60;;;13.90;98.80;;;;;;5472176;25;20016;-79
2024/04/22 10:45:26;;;;;;;1.67;0.50;;;14.30;97.40;;;;;;5389042;26;21541;-79
2024/04/22 10:47:53;;;;;;;3.28;0.80;;;14.20;96.10;;;;;;5371313;26;20575;-80
2024/04/22 10:50:20;;;;;;;2.92;0.50;;;14.00;95.80;;;;;;5376177;26;21959;-80
2024/04/22 10:52:48;;;;;;;1.50;0.50;;;13.80;96.00;;;;;;5392930;26;19998;-79
2024/04/22 10:55:14;;;;;;;1.92;0.50;;;13.60;95.80;;;;;;5357359;26;20337;-79
2024/04/22 10:57:41;;;;;;;2.42;0.70;;;13.60;95.40;;;;;;5448693;25;20020;-79
2024/04/22 11:00:08;;;;;;;3.83;1.00;;;13.50;94.30;;;;;;5363954;26;20006;-79
2024/04/22 11:02:35;;;;;;;1.98;0.60;;;13.30;94.00;;;;;;5377897;26;20006;-80
2024/04/22 11:05:05;;;;;;;1.52;0.60;;;13.10;94.30;;;;;;5426535;26;20002;-81
2024/04/22 11:07:33;;;;;;;2.13;0.73;;;13.00;94.60;;;;;;5389255;26;20021;-80
2024/04/22 11:10:02;;;;;;;1.40;0.50;;;12.90;93.90;;;;;;5417557;26;20045;-80
2024/04/22 11:12:29;;;;;;;1.75;0.68;;;12.70;94.00;;;;;;5388885;26;20017;-80
2024/04/22 11:14:57;;;;;;;4.07;0.57;;;12.70;94.30;;;;;;5390522;26;20014;-80
2024/04/22 11:17:24;;;;;;;1.38;0.60;;;12.70;94.60;;;;;;5434933;26;20020;-80
2024/04/22 11:19:50;;;;;;;2.45;0.60;;;12.60;94.10;;;;;;5392086;26;20063;-80
2024/04/22 11:22:20;;;;;;;2.67;0.70;;;12.70;94.30;;;;;;5386298;26;20017;-80
2024/04/22 11:24:47;;;;;;;2.25;0.80;;;13.00;94.70;;;;;;5446210;25;20013;-80
2024/04/22 11:27:15;;;;;;;2.83;0.70;;;13.50;94.80;;;;;;5413545;26;20021;-80
2024/04/22 11:29:41;;;;;;;2.42;0.60;;;13.90;94.50;;;;;;5376799;26;20009;-79
2024/04/22 11:32:08;;;;;;;2.38;0.70;;;13.90;93.90;;;;;;5393107;26;20001;-79
2024/04/22 11:34:35;;;;;;;5.55;0.90;;;13.90;93.90;;;;;;5416251;26;20010;-80
2024/04/22 11:37:02;;;;;;;1.13;0.57;;;13.90;93.50;;;;;;5418282;26;20024;-80
2024/04/22 11:39:29;;;;;;;2.22;0.80;;;14.20;93.50;;;;;;5419137;26;20006;-80
2024/04/22 11:41:56;;;;;;;2.42;0.73;;;14.70;93.70;;;;;;5379395;26;20002;-80
2024/04/22 11:44:23;;;;;;;1.73;0.60;;;15.20;93.30;;;;;;5405304;26;20004;-80
2024/04/22 11:46:50;;;;;;;2.63;0.57;;;15.60;90.70;;;;;;5387041;26;20006;-80
2024/04/22 11:49:18;;;;;;;1.73;0.70;;;16.00;89.20;;;;;;5417944;26;19999;-81
2024/04/22 11:51:44;;;;;;;2.03;0.45;;;16.40;87.50;;;;;;5388086;26;20002;-81
2024/04/22 11:54:10;;;;;;;1.63;0.70;;;16.80;86.00;;;;;;5397491;26;20007;-81
2024/04/22 11:56:39;;;;;;;2.75;0.60;;;17.30;85.40;;;;;;5433059;26;21028;-79
2024/04/22 11:59:07;;;;;;;1.10;0.57;;;17.30;81.50;;;;;;5445848;25;20021;-81
2024/04/22 12:01:33;;;;;;;2.30;1.08;;;16.60;78.70;;;;;;5389952;26;20006;-79
2024/04/22 12:04:00;;;;;;;2.30;0.50;;;15.90;77.60;;;;;;5358870;26;20690;-79
2024/04/22 12:06:27;;;;;;;3.33;1.00;;;15.60;79.30;;;;;;5384751;26;20346;-80
2024/04/22 12:08:53;;;;;;;6.35;3.05;;;15.90;80.10;;;;;;5423490;26;20021;-79
2024/04/22 12:11:20;;;;;;;2.50;0.60;;;16.40;78.30;;;;;;5407074;26;20470;-79
2024/04/22 12:13:47;;;;;;;1.20;0.43;;;16.90;75.50;;;;;;5419489;26;20012;-78
2024/04/22 12:16:13;;;;;;;3.55;0.60;;;17.50;75.60;;;;;;5441450;26;21082;-78
2024/04/22 12:18:39;;;;;;;2.20;0.70;;;18.00;74.60;;;;;;5416655;26;19998;-78
2024/04/22 12:21:07;;;;;;;3.90;0.73;;;18.80;74.80;;;;;;5394136;26;20547;-78
2024/04/22 12:23:33;;;;;;;3.40;0.73;;;19.10;72.60;;;;;;5401322;26;20462;-78
2024/04/22 12:26:00;;;;;;;2.00;0.50;;;18.30;70.20;;;;;;5424646;26;20014;-79
2024/04/22 12:28:26;;;;;;;2.42;0.50;;;17.50;70.70;;;;;;5416902;26;20072;-79
2024/04/22 12:30:53;;;;;;;1.30;0.40;;;17.20;72.00;;;;;;5392212;26;20025;-79
2024/04/22 12:33:21;;;;;;;1.40;0.40;;;17.70;71.70;;;;;;5389104;26;20567;-79
2024/04/22 12:35:47;;;;;;;1.58;0.60;;;18.50;67.90;;;;;;5438477;26;20009;-79
2024/04/22 12:38:13;;;;;;;1.85;0.50;;;19.00;63.40;;;;;;5401573;26;20662;-79
2024/04/22 12:40:40;;;;;;;2.75;0.50;;;18.70;62.10;;;;;;5423412;26;20021;-79
2024/04/22 12:43:08;;;;;;;1.75;0.55;;;18.30;63.50;;;;;;5390664;26;20016;-80
2024/04/22 12:45:35;;;;;;;1.35;0.43;;;18.50;63.50;;;;;;5392104;26;20010;-80
2024/04/22 12:50:48;;;;;;;1.52;0.57;;;16.90;61.70;;;;;;5436670;26;20024;-78
2024/04/22 12:53:15;;;;;;;1.45;0.40;;;15.70;61.70;;;;;;5393996;26;20002;-79
2024/04/22 12:55:41;;;;;;;0.90;0.30;;;14.90;63.00;;;;;;5422129;26;20013;-78
2024/04/22 12:58:08;;;;;;;1.15;0.30;;;14.30;63.30;;;;;;5393926;26;20013;-78
2024/04/22 13:00:34;;;;;;;1.35;0.45;;;13.80;64.80;;;;;;5422653;26;20381;-80